createdAt,value
2018-09-02T00:00:01.079Z,101903.56
2018-09-02T00:02:31.191Z,101905.26
2018-09-02T00:05:00.882Z,101904.32
2018-09-02T00:07:30.235Z,101898.61
2018-09-02T00:09:59.511Z,101905.21
2018-09-02T00:12:28.979Z,101903.99
2018-09-02T00:14:58.503Z,101902.34
2018-09-02T00:17:28.691Z,101909.20
2018-09-02T00:19:58.566Z,101908.48
2018-09-02T00:22:27.844Z,101901.83
2018-09-02T00:24:57.946Z,101901.58
2018-09-02T00:27:27.459Z,101897.13
2018-09-02T00:29:57.126Z,101901.78
2018-09-02T00:32:27.715Z,101900.20
2018-09-02T00:34:57.982Z,101897.95
2018-09-02T00:37:28.263Z,101897.95
2018-09-02T00:39:57.854Z,101902.50
2018-09-02T00:42:27.815Z,101901.27
2018-09-02T00:44:57.787Z,101904.08
2018-09-02T00:47:27.776Z,101899.14
2018-09-02T00:49:58.207Z,101897.09
2018-09-02T00:52:27.806Z,101903.45
2018-09-02T00:54:57.292Z,101902.68
2018-09-02T00:57:26.828Z,101908.80
2018-09-02T00:59:56.883Z,101904.65
2018-09-02T01:02:26.249Z,101903.45
2018-09-02T01:04:56.375Z,101907.44
2018-09-02T01:07:25.868Z,101903.57
2018-09-02T01:09:55.351Z,101908.15
2018-09-02T01:12:24.942Z,101910.12
2018-09-02T01:14:54.392Z,101909.84
2018-09-02T01:17:24.526Z,101915.89
2018-09-02T01:19:54.199Z,101916.50
2018-09-02T01:22:23.887Z,101915.39
2018-09-02T01:24:54.226Z,101911.75
2018-09-02T01:27:24.074Z,101917.36
2018-09-02T01:29:54.510Z,101917.66
2018-09-02T01:32:23.966Z,101914.58
2018-09-02T01:34:53.786Z,101916.83
2018-09-02T01:37:24.031Z,101916.83
2018-09-02T01:39:54.184Z,101919.70
2018-09-02T01:42:24.598Z,101922.48
2018-09-02T01:44:54.155Z,101914.78
2018-09-02T01:47:24.138Z,101915.31
2018-09-02T01:49:53.895Z,101909.82
2018-09-02T01:52:23.295Z,101913.81
2018-09-02T01:54:52.766Z,101912.75
2018-09-02T01:57:22.319Z,101918.50
2018-09-02T01:59:52.028Z,101922.21
2018-09-02T02:02:21.526Z,101913.69
2018-09-02T02:04:51.006Z,101910.45
2018-09-02T02:07:20.571Z,101909.55
2018-09-02T02:09:50.011Z,101917.50
2018-09-02T02:12:20.039Z,101914.36
2018-09-02T02:14:49.435Z,101908.36
2018-09-02T02:17:19.032Z,101909.75
2018-09-02T02:19:48.693Z,101906.97
2018-09-02T02:22:18.158Z,101906.44
2018-09-02T02:24:48.326Z,101906.97
2018-09-02T02:27:18.155Z,101902.36
2018-09-02T02:29:47.794Z,101899.91
2018-09-02T02:32:17.619Z,101903.75
2018-09-02T02:34:47.114Z,101899.84
2018-09-02T02:37:17.354Z,101901.00
2018-09-02T02:39:47.263Z,101902.56
2018-09-02T02:42:16.692Z,101898.13
2018-09-02T02:44:46.794Z,101896.16
2018-09-02T02:47:16.911Z,101893.98
2018-09-02T02:49:46.830Z,101890.69
2018-09-02T02:52:16.396Z,101879.52
2018-09-02T02:54:46.223Z,101883.43
2018-09-02T02:57:15.738Z,101892.72
2018-09-02T02:59:45.720Z,101881.48
2018-09-02T03:02:15.187Z,101885.67
2018-09-02T03:04:44.979Z,101882.92
2018-09-02T03:07:14.796Z,101886.52
2018-09-02T03:09:45.687Z,101881.16
2018-09-02T03:12:15.067Z,101879.15
2018-09-02T03:14:44.342Z,101877.36
2018-09-02T03:17:13.847Z,101874.83
2018-09-02T03:19:43.342Z,101875.06
2018-09-02T03:22:13.539Z,101871.64
2018-09-02T03:24:42.822Z,101874.37
2018-09-02T03:27:12.289Z,101876.34
2018-09-02T03:29:41.762Z,101881.00
2018-09-02T03:32:11.915Z,101871.83
2018-09-02T03:34:41.591Z,101874.43
2018-09-02T03:37:11.114Z,101870.23
2018-09-02T03:39:40.624Z,101873.52
2018-09-02T03:42:10.587Z,101867.40
2018-09-02T03:44:40.047Z,101864.84
2018-09-02T03:47:09.535Z,101857.54
2018-09-02T03:49:39.510Z,101869.09
2018-09-02T03:52:09.489Z,101859.08
2018-09-02T03:54:39.905Z,101854.34
2018-09-02T03:57:10.051Z,101858.77
2018-09-02T03:59:39.518Z,101861.78
2018-09-02T04:02:09.237Z,101865.11
2018-09-02T04:04:38.710Z,101857.27
2018-09-02T04:07:08.255Z,101857.13
2018-09-02T04:09:42.038Z,101861.41
2018-09-02T04:12:12.149Z,101863.70
2018-09-02T04:14:41.858Z,101858.45
2018-09-02T04:17:11.832Z,101856.95
2018-09-02T04:19:41.693Z,101857.86
2018-09-02T04:22:11.399Z,101850.65
2018-09-02T04:24:41.099Z,101849.27
2018-09-02T04:27:10.846Z,101859.09
2018-09-02T04:29:40.795Z,101860.41
2018-09-02T04:32:09.978Z,101852.75
2018-09-02T04:34:39.942Z,101859.73
2018-09-02T04:37:09.438Z,101856.98
2018-09-02T04:39:38.957Z,101859.36
2018-09-02T04:42:08.459Z,101854.30
2018-09-02T04:44:37.983Z,101860.64
2018-09-02T04:47:08.101Z,101852.24
2018-09-02T04:49:37.808Z,101847.95
2018-09-02T04:52:07.542Z,101849.50
2018-09-02T04:54:37.251Z,101851.38
2018-09-02T04:57:07.144Z,101848.09
2018-09-02T04:59:36.624Z,101851.70
2018-09-02T05:02:06.176Z,101846.45
2018-09-02T05:04:35.430Z,101850.55
2018-09-02T05:07:04.944Z,101850.73
2018-09-02T05:09:34.572Z,101852.24
2018-09-02T05:12:04.440Z,101852.84
2018-09-02T05:14:33.697Z,101855.39
2018-09-02T05:17:03.240Z,101847.13
2018-09-02T05:19:33.099Z,101848.00
2018-09-02T05:22:02.657Z,101851.56
2018-09-02T05:24:32.152Z,101850.23
2018-09-02T05:27:01.626Z,101852.52
2018-09-02T05:29:31.698Z,101856.07
2018-09-02T05:32:01.231Z,101860.73
2018-09-02T05:34:31.387Z,101856.22
2018-09-02T05:37:00.941Z,101859.71
2018-09-02T05:39:30.821Z,101861.16
2018-09-02T05:42:00.689Z,101862.73
2018-09-02T05:44:30.194Z,101867.37
2018-09-02T05:46:59.782Z,101868.02
2018-09-02T05:49:29.767Z,101863.48
2018-09-02T05:51:59.323Z,101865.90
2018-09-02T05:54:28.802Z,101869.68
2018-09-02T05:56:58.507Z,101864.74
2018-09-02T05:59:27.786Z,101866.34
2018-09-02T06:01:57.617Z,101869.85
2018-09-02T06:04:27.043Z,101874.16
2018-09-02T06:06:57.013Z,101864.61
2018-09-02T06:09:26.673Z,101871.41
2018-09-02T06:11:56.207Z,101874.19
2018-09-02T06:14:26.110Z,101870.41
2018-09-02T06:16:56.827Z,101864.50
2018-09-02T06:19:26.547Z,101867.67
2018-09-02T06:21:56.068Z,101863.59
2018-09-02T06:24:26.020Z,101870.02
2018-09-02T06:26:55.484Z,101862.23
2018-09-02T06:29:25.151Z,101867.81
2018-09-02T06:31:55.107Z,101863.41
2018-09-02T06:34:25.034Z,101864.54
2018-09-02T06:36:54.941Z,101869.57
2018-09-02T06:39:24.270Z,101867.61
2018-09-02T06:41:53.693Z,101865.22
2018-09-02T06:44:23.272Z,101861.13
2018-09-02T06:46:53.110Z,101863.71
2018-09-02T06:49:23.400Z,101860.21
2018-09-02T06:51:53.486Z,101860.59
2018-09-02T06:54:23.390Z,101859.05
2018-09-02T06:56:53.363Z,101859.75
2018-09-02T06:59:22.562Z,101852.94
2018-09-02T07:01:52.018Z,101858.64
2018-09-02T07:04:21.781Z,101850.05
2018-09-02T07:06:51.922Z,101850.95
2018-09-02T07:09:21.324Z,101848.11
2018-09-02T07:11:51.398Z,101851.69
2018-09-02T07:14:20.781Z,101840.39
2018-09-02T07:16:50.700Z,101847.09
2018-09-02T07:19:19.982Z,101842.52
2018-09-02T07:21:50.864Z,101825.31
2018-09-02T07:24:20.883Z,101835.55
2018-09-02T07:26:50.342Z,101833.78
2018-09-02T07:29:19.819Z,101828.13
2018-09-02T07:31:49.367Z,101834.60
2018-09-02T07:34:19.214Z,101838.77
2018-09-02T07:36:48.998Z,101838.26
2018-09-02T07:39:18.514Z,101835.08
2018-09-02T07:41:48.462Z,101832.92
2018-09-02T07:44:17.947Z,101825.28
2018-09-02T07:46:47.865Z,101824.52
2018-09-02T07:49:17.327Z,101824.33
2018-09-02T07:51:46.814Z,101821.47
2018-09-02T07:54:16.790Z,101816.73
2018-09-02T07:56:46.267Z,101809.70
2018-09-02T07:59:16.534Z,101806.84
2018-09-02T08:01:46.598Z,101817.42
2018-09-02T08:04:15.979Z,101811.93
2018-09-02T08:06:45.739Z,101810.84
2018-09-02T08:09:15.235Z,101810.09
2018-09-02T08:11:46.095Z,101810.59
2018-09-02T08:14:15.662Z,101802.48
2018-09-02T08:16:45.387Z,101799.52
2018-09-02T08:19:14.847Z,101795.13
2018-09-02T08:21:44.183Z,101795.68
2018-09-02T08:24:14.614Z,101748.45
2018-09-02T08:26:44.666Z,101790.45
2018-09-02T08:29:14.723Z,101776.88
2018-09-02T08:31:44.455Z,101776.40
2018-09-02T08:34:14.131Z,101769.48
2018-09-02T08:36:43.662Z,101765.88
2018-09-02T08:39:13.197Z,101760.87
2018-09-02T08:41:43.890Z,101772.59
2018-09-02T08:44:14.343Z,101767.27
2018-09-02T08:46:44.314Z,101776.02
2018-09-02T08:49:14.411Z,101755.50
2018-09-02T08:51:43.955Z,101759.13
2018-09-02T08:54:13.770Z,101755.80
2018-09-02T08:56:44.004Z,101746.16
2018-09-02T08:59:13.495Z,101743.22
2018-09-02T09:01:43.471Z,101743.27
2018-09-02T09:04:12.890Z,101733.22
2018-09-02T09:06:42.418Z,101747.86
2018-09-02T09:09:12.487Z,101746.38
2018-09-02T09:11:42.179Z,101747.14
2018-09-02T09:14:11.562Z,101736.42
2018-09-02T09:16:41.173Z,101739.34
2018-09-02T09:19:10.955Z,101741.59
2018-09-02T09:21:40.480Z,101737.17
2018-09-02T09:24:11.578Z,101728.47
2018-09-02T09:26:40.938Z,101719.59
2018-09-02T09:29:10.830Z,101716.86
2018-09-02T09:31:40.534Z,101717.38
2018-09-02T09:34:10.657Z,101710.05
2018-09-02T09:36:40.359Z,101718.44
2018-09-02T09:39:10.690Z,101715.23
2018-09-02T09:41:40.441Z,101697.11
2018-09-02T09:44:11.326Z,101701.45
2018-09-02T09:46:40.826Z,101695.38
2018-09-02T09:49:11.074Z,101693.50
2018-09-02T09:51:41.254Z,101695.47
2018-09-02T09:54:10.814Z,101693.66
2018-09-02T09:56:40.274Z,101684.29
2018-09-02T09:59:10.484Z,101688.43
2018-09-02T10:01:40.683Z,101693.51
2018-09-02T10:04:10.060Z,101685.64
2018-09-02T10:06:39.815Z,101679.70
2018-09-02T10:09:13.295Z,101672.70
2018-09-02T10:11:43.553Z,101675.39
2018-09-02T10:14:13.556Z,101663.81
2018-09-02T10:16:43.316Z,101655.40
2018-09-02T10:19:12.859Z,101662.07
2018-09-02T10:21:42.339Z,101647.67
2018-09-02T10:24:11.849Z,101645.58
2018-09-02T10:26:41.554Z,101642.03
2018-09-02T10:29:11.014Z,101636.53
2018-09-02T10:31:40.930Z,101632.08
2018-09-02T10:34:10.434Z,101632.19
2018-09-02T10:36:40.231Z,101634.37
2018-09-02T10:39:10.114Z,101632.92
2018-09-02T10:41:39.820Z,101626.91
2018-09-02T10:44:10.123Z,101624.57
2018-09-02T10:46:40.456Z,101622.77
2018-09-02T10:49:09.950Z,101612.44
2018-09-02T10:51:39.451Z,101607.55
2018-09-02T10:54:09.480Z,101607.55
2018-09-02T10:56:39.183Z,101599.00
2018-09-02T10:59:09.214Z,101605.06
2018-09-02T11:01:38.672Z,101601.42
2018-09-02T11:04:08.459Z,101594.33
2018-09-02T11:06:38.471Z,101595.61
2018-09-02T11:09:09.786Z,101596.81
2018-09-02T11:11:39.218Z,101596.19
2018-09-02T11:16:38.212Z,101587.91
2018-09-02T11:19:08.527Z,101591.25
2018-09-02T11:21:38.159Z,101592.83
2018-09-02T11:24:08.259Z,101593.62
2018-09-02T11:26:37.830Z,101585.50
2018-09-02T11:29:07.396Z,101585.44
2018-09-02T11:31:37.246Z,101587.23
2018-09-02T11:34:07.076Z,101582.34
2018-09-02T11:36:36.453Z,101584.06
2018-09-02T11:39:08.752Z,101580.30
2018-09-02T11:41:38.335Z,101575.82
2018-09-02T11:44:08.407Z,101573.69
2018-09-02T11:46:38.171Z,101574.34
2018-09-02T11:49:07.993Z,101574.98
2018-09-02T11:51:37.387Z,101566.43
2018-09-02T11:54:07.274Z,101566.80
2018-09-02T11:56:36.949Z,101565.59
2018-09-02T11:59:07.075Z,101562.28
2018-09-02T12:01:37.566Z,101561.20
2018-09-02T12:04:07.477Z,101558.77
2018-09-02T12:06:37.336Z,101550.77
2018-09-02T12:09:08.836Z,101551.66
2018-09-02T12:11:39.021Z,101546.48
2018-09-02T12:14:08.447Z,101551.30
2018-09-02T12:16:37.738Z,101547.38
2018-09-02T12:19:07.384Z,101545.26
2018-09-02T12:21:37.269Z,101540.06
2018-09-02T12:24:07.194Z,101543.97
2018-09-02T12:26:37.051Z,101541.27
2018-09-02T12:29:06.400Z,101542.47
2018-09-02T12:31:35.965Z,101539.33
2018-09-02T12:34:05.352Z,101540.50
2018-09-02T12:36:35.243Z,101531.86
2018-09-02T12:39:05.425Z,101531.66
2018-09-02T12:41:35.305Z,101518.45
2018-09-02T12:44:05.247Z,101526.22
2018-09-02T12:46:35.206Z,101522.61
2018-09-02T12:49:05.063Z,101524.73
2018-09-02T12:51:34.803Z,101522.15
2018-09-02T12:54:04.410Z,101515.41
2018-09-02T12:56:34.128Z,101485.16
2018-09-02T12:59:04.107Z,101515.43
2018-09-02T13:01:34.527Z,101517.06
2018-09-02T13:04:04.656Z,101501.30
2018-09-02T13:06:34.806Z,101463.33
2018-09-02T13:09:06.039Z,101503.66
2018-09-02T13:11:35.461Z,101500.67
2018-09-02T13:14:05.512Z,101499.17
2018-09-02T13:16:35.743Z,101450.97
2018-09-02T13:19:05.781Z,101505.65
2018-09-02T13:21:35.321Z,101453.05
2018-09-02T13:24:05.394Z,101503.50
2018-09-02T13:26:35.675Z,101498.45
2018-09-02T13:29:06.205Z,101489.05
2018-09-02T13:31:35.970Z,101485.63
2018-09-02T13:34:05.194Z,101483.14
2018-09-02T13:36:35.044Z,101487.87
2018-09-02T13:39:05.523Z,101484.14
2018-09-02T13:41:36.110Z,101481.66
2018-09-02T13:44:06.144Z,101481.20
2018-09-02T13:46:35.974Z,101480.76
2018-09-02T13:49:06.155Z,101477.53
2018-09-02T13:51:36.459Z,101476.58
2018-09-02T13:54:06.068Z,101471.36
2018-09-02T13:56:35.959Z,101472.11
2018-09-02T13:59:05.650Z,101475.81
2018-09-02T14:01:35.635Z,101468.92
2018-09-02T14:04:05.506Z,101473.33
2018-09-02T14:06:35.272Z,101468.84
2018-09-02T14:09:06.008Z,101460.66
2018-09-02T14:11:36.156Z,101463.97
2018-09-02T14:14:06.532Z,101461.09
2018-09-02T14:16:36.069Z,101457.28
2018-09-02T14:19:05.872Z,101460.30
2018-09-02T14:21:35.408Z,101459.58
2018-09-02T14:24:05.207Z,101447.66
2018-09-02T14:26:35.384Z,101444.20
2018-09-02T14:29:05.031Z,101443.87
2018-09-02T14:31:34.847Z,101434.84
2018-09-02T14:34:04.315Z,101435.89
2018-09-02T14:36:34.213Z,101441.06
2018-09-02T14:39:05.574Z,101434.72
2018-09-02T14:41:35.461Z,101438.30
2018-09-02T14:44:05.399Z,101424.97
2018-09-02T14:46:35.163Z,101428.02
2018-09-02T14:49:05.059Z,101424.43
2018-09-02T14:51:34.486Z,101427.80
2018-09-02T14:54:04.370Z,101424.16
2018-09-02T14:56:34.120Z,101419.75
2018-09-02T14:59:03.651Z,101416.09
2018-09-02T15:01:33.127Z,101419.30
2018-09-02T15:04:02.686Z,101416.30
2018-09-02T15:06:32.830Z,101417.41
2018-09-02T15:09:02.517Z,101417.96
2018-09-02T15:11:32.189Z,101419.48
2018-09-02T15:14:01.690Z,101414.92
2018-09-02T15:16:33.327Z,101407.41
2018-09-02T15:19:02.743Z,101413.63
2018-09-02T15:21:32.460Z,101416.07
2018-09-02T15:24:02.024Z,101420.35
2018-09-02T15:26:31.557Z,101415.85
2018-09-02T15:29:01.588Z,101415.17
2018-09-02T15:31:31.288Z,101409.81
2018-09-02T15:34:01.072Z,101410.91
2018-09-02T15:36:31.250Z,101403.08
2018-09-02T15:39:01.371Z,101405.32
2018-09-02T15:41:30.755Z,101409.37
2018-09-02T15:44:00.305Z,101404.28
2018-09-02T15:46:30.093Z,101406.84
2018-09-02T15:48:59.524Z,101405.57
2018-09-02T15:51:29.641Z,101401.44
2018-09-02T15:53:59.491Z,101401.75
2018-09-02T15:56:28.718Z,101404.25
2018-09-02T15:58:59.199Z,101404.64
2018-09-02T16:01:29.231Z,101400.14
2018-09-02T16:03:58.776Z,101398.52
2018-09-02T16:06:28.459Z,101395.33
2018-09-02T16:08:57.954Z,101397.35
2018-09-02T16:11:28.447Z,101399.73
2018-09-02T16:13:58.524Z,101399.87
2018-09-02T16:16:29.536Z,101400.37
2018-09-02T16:18:59.591Z,101396.42
2018-09-02T16:21:28.991Z,101395.76
2018-09-02T16:23:58.203Z,101393.70
2018-09-02T16:26:28.012Z,101392.11
2018-09-02T16:28:57.491Z,101390.98
2018-09-02T16:31:27.868Z,101393.97
2018-09-02T16:33:59.271Z,101389.99
2018-09-02T16:36:29.119Z,101395.09
2018-09-02T16:38:58.564Z,101390.98
2018-09-02T16:41:28.215Z,101394.35
2018-09-02T16:43:57.602Z,101398.92
2018-09-02T16:46:27.091Z,101398.25
2018-09-02T16:48:56.617Z,101409.71
2018-09-02T16:51:26.322Z,101409.92
2018-09-02T16:53:55.802Z,101398.36
2018-09-02T16:56:25.579Z,101401.41
2018-09-02T16:58:55.058Z,101402.97
2018-09-02T17:01:24.303Z,101393.10
2018-09-02T17:03:58.221Z,101389.02
2018-09-02T17:06:27.657Z,101391.19
2018-09-02T17:08:57.200Z,101385.95
2018-09-02T17:11:27.050Z,101378.95
2018-09-02T17:13:56.547Z,101379.09
2018-09-02T17:16:26.045Z,101368.49
2018-09-02T17:18:59.943Z,101368.73
2018-09-02T17:21:29.391Z,101371.57
2018-09-02T17:23:58.871Z,101374.52
2018-09-02T17:26:28.589Z,101373.06
2018-09-02T17:28:57.791Z,101378.70
2018-09-02T17:31:27.227Z,101376.69
2018-09-02T17:33:56.683Z,101375.34
2018-09-02T17:36:26.370Z,101373.00
2018-09-02T17:38:55.894Z,101317.55
2018-09-02T17:41:25.418Z,101367.55
2018-09-02T17:43:55.441Z,101370.03
2018-09-02T17:46:24.951Z,101373.08
2018-09-02T17:48:54.538Z,101375.13
2018-09-02T17:51:23.829Z,101372.61
2018-09-02T17:53:53.518Z,101377.61
2018-09-02T17:56:23.146Z,101374.98
2018-09-02T17:58:52.388Z,101379.02
2018-09-02T18:01:22.326Z,101375.75
2018-09-02T18:03:51.787Z,101374.91
2018-09-02T18:06:22.312Z,101375.29
2018-09-02T18:08:51.777Z,101374.30
2018-09-02T18:11:21.420Z,101377.05
2018-09-02T18:13:50.611Z,101377.25
2018-09-02T18:16:20.208Z,101382.76
2018-09-02T18:18:49.574Z,101390.08
2018-09-02T18:21:18.925Z,101390.40
2018-09-02T18:23:48.451Z,101392.04
2018-09-02T18:26:18.250Z,101396.25
2018-09-02T18:28:48.538Z,101392.77
2018-09-02T18:31:18.929Z,101396.43
2018-09-02T18:33:48.312Z,101395.47
2018-09-02T18:36:17.860Z,101393.47
2018-09-02T18:38:47.368Z,101402.89
2018-09-02T18:41:17.046Z,101407.41
2018-09-02T18:43:46.963Z,101405.56
2018-09-02T18:46:18.379Z,101407.08
2018-09-02T18:48:48.348Z,101409.95
2018-09-02T18:51:17.895Z,101409.30
2018-09-02T18:53:47.880Z,101414.22
2018-09-02T18:56:17.106Z,101420.30
2018-09-02T18:58:46.677Z,101423.66
2018-09-02T19:01:16.896Z,101417.81
2018-09-02T19:03:46.972Z,101422.40
2018-09-02T19:06:17.338Z,101419.44
2018-09-02T19:08:46.995Z,101416.55
2018-09-02T19:11:16.847Z,101416.13
2018-09-02T19:13:46.299Z,101417.66
2018-09-02T19:16:16.762Z,101420.25
2018-09-02T19:18:46.372Z,101411.16
2018-09-02T19:21:16.402Z,101413.69
2018-09-02T19:23:45.793Z,101415.09
2018-09-02T19:26:15.713Z,101412.09
2018-09-02T19:28:45.172Z,101416.83
2018-09-02T19:31:14.914Z,101415.33
2018-09-02T19:33:44.525Z,101418.03
2018-09-02T19:36:13.914Z,101412.00
2018-09-02T19:38:43.432Z,101417.91
2018-09-02T19:41:13.766Z,101409.31
2018-09-02T19:43:43.011Z,101413.40
2018-09-02T19:46:13.309Z,101404.49
2018-09-02T19:48:43.020Z,101392.74
2018-09-02T19:51:12.431Z,101396.30
2018-09-02T19:53:42.000Z,101396.96
2018-09-02T19:56:11.407Z,101383.19
2018-09-02T19:58:41.181Z,101385.89
2018-09-02T20:01:11.066Z,101384.70
2018-09-02T20:03:40.491Z,101382.37
2018-09-02T20:06:09.994Z,101386.58
2018-09-02T20:08:39.524Z,101384.41
2018-09-02T20:11:09.030Z,101376.98
2018-09-02T20:13:38.541Z,101367.94
2018-09-02T20:16:07.886Z,101368.59
2018-09-02T20:18:37.542Z,101379.36
2018-09-02T20:21:07.199Z,101374.02
2018-09-02T20:23:36.753Z,101370.38
2018-09-02T20:26:06.434Z,101368.88
2018-09-02T20:28:35.802Z,101365.33
2018-09-02T20:31:05.271Z,101368.02
2018-09-02T20:33:35.246Z,101367.20
2018-09-02T20:36:05.606Z,101370.06
2018-09-02T20:38:35.482Z,101365.37
2018-09-02T20:41:04.940Z,101366.89
2018-09-02T20:43:34.151Z,101359.36
2018-09-02T20:46:04.044Z,101362.05
2018-09-02T20:48:33.418Z,101358.36
2018-09-02T20:51:03.412Z,101362.11
2018-09-02T20:53:32.857Z,101353.98
2018-09-02T20:56:02.931Z,101362.87
2018-09-02T20:58:32.700Z,101362.59
2018-09-02T21:01:02.366Z,101368.51
2018-09-02T21:03:31.958Z,101373.72
2018-09-02T21:06:01.484Z,101369.25
2018-09-02T21:08:31.064Z,101372.91
2018-09-02T21:11:00.826Z,101371.72
2018-09-02T21:13:30.736Z,101367.00
2018-09-02T21:16:00.279Z,101364.52
2018-09-02T21:18:29.788Z,101367.20
2018-09-02T21:20:59.105Z,101366.89
2018-09-02T21:23:28.597Z,101366.20
2018-09-02T21:25:58.639Z,101370.42
2018-09-02T21:28:28.162Z,101367.38
2018-09-02T21:30:57.686Z,101364.05
2018-09-02T21:33:27.166Z,101369.25
2018-09-02T21:35:56.692Z,101358.30
2018-09-02T21:38:26.196Z,101354.80
2018-09-02T21:40:56.068Z,101354.63
2018-09-02T21:43:25.439Z,101351.78
2018-09-02T21:45:54.769Z,101352.64
2018-09-02T21:48:24.579Z,101344.09
2018-09-02T21:50:53.819Z,101342.59
2018-09-02T21:53:23.238Z,101342.77
2018-09-02T21:55:52.715Z,101346.25
2018-09-02T21:58:22.277Z,101342.42
2018-09-02T22:00:51.803Z,101332.37
2018-09-02T22:03:21.058Z,101348.98
2018-09-02T22:05:50.803Z,101343.73
2018-09-02T22:08:20.080Z,101339.91
2018-09-02T22:10:49.535Z,101337.38
2018-09-02T22:13:18.820Z,101334.53
2018-09-02T22:15:48.334Z,101338.72
2018-09-02T22:18:18.055Z,101332.86
2018-09-02T22:20:47.824Z,101337.70
2018-09-02T22:23:17.314Z,101331.36
2018-09-02T22:25:47.124Z,101332.37
2018-09-02T22:28:16.555Z,101332.74
2018-09-02T22:30:46.199Z,101331.52
2018-09-02T22:33:15.701Z,101332.06
2018-09-02T22:35:45.446Z,101341.98
2018-09-02T22:38:15.902Z,101334.42
2018-09-02T22:40:45.486Z,101336.45
2018-09-02T22:43:14.930Z,101336.66
2018-09-02T22:45:44.683Z,101337.63
2018-09-02T22:48:14.443Z,101327.05
2018-09-02T22:50:44.314Z,101329.73
2018-09-02T22:53:13.991Z,101327.39
2018-09-02T22:55:43.499Z,101326.05
2018-09-02T22:58:13.440Z,101324.05
2018-09-02T23:00:42.969Z,101324.91
2018-09-02T23:03:13.068Z,101319.89
2018-09-02T23:05:42.575Z,101311.48
2018-09-02T23:08:12.356Z,101306.44
2018-09-02T23:10:42.243Z,101310.01
2018-09-02T23:13:11.899Z,101302.31
2018-09-02T23:15:41.757Z,101304.52
2018-09-02T23:18:10.937Z,101304.31
2018-09-02T23:20:40.475Z,101304.48
2018-09-02T23:23:09.942Z,101306.83
2018-09-02T23:25:39.438Z,101306.70
2018-09-02T23:28:09.930Z,101304.87
2018-09-02T23:30:39.294Z,101300.45
2018-09-02T23:33:08.766Z,101295.93
2018-09-02T23:35:38.532Z,101296.09
2018-09-02T23:38:10.066Z,101295.73
2018-09-02T23:40:39.530Z,101288.57
2018-09-02T23:43:09.313Z,101281.53
2018-09-02T23:45:39.640Z,101278.52
2018-09-02T23:48:09.506Z,101273.64
2018-09-02T23:50:38.957Z,101276.36
2018-09-02T23:53:09.015Z,101266.97
2018-09-02T23:55:38.616Z,101261.40
2018-09-02T23:58:08.767Z,101260.87
